Time;durP1;ratioP1;P1;durP2;ratioP2;P2;SDS_P1;SDS_P2;PMS_P1;PMS_P2;Temp;Humidity;BMP_temperature;BMP_pressure;BME280_temperature;BME280_humidity;BME280_pressure;Samples;Min_cycle;Max_cycle;Signal;HPM_P1;HPM_P2
2021/10/07 00:00:55;;;;;;;4.33;3.00;;;12.10;94.50;;;;;;5059377;28;20639;-89
2021/10/07 00:03:21;;;;;;;5.80;3.20;;;12.00;94.90;;;;;;5059392;28;20195;-88
2021/10/07 00:05:47;;;;;;;6.13;2.50;;;11.90;95.60;;;;;;5053159;28;20191;-87
2021/10/07 00:08:12;;;;;;;6.37;2.87;;;12.00;95.10;;;;;;5058796;28;20191;-87
2021/10/07 00:10:38;;;;;;;6.30;3.40;;;11.90;95.40;;;;;;5058406;28;20203;-87
2021/10/07 00:13:04;;;;;;;3.40;2.20;;;12.00;95.70;;;;;;5054509;28;20723;-87
2021/10/07 00:15:29;;;;;;;3.47;2.70;;;11.90;95.60;;;;;;5049209;28;20213;-86
2021/10/07 00:17:57;;;;;;;7.17;2.77;;;11.90;95.90;;;;;;5040345;28;20241;-88
2021/10/07 00:20:23;;;;;;;5.90;3.00;;;11.80;95.40;;;;;;5034775;28;20579;-87
2021/10/07 00:22:49;;;;;;;7.00;2.70;;;11.70;96.10;;;;;;5045986;28;20213;-88
2021/10/07 00:25:16;;;;;;;5.30;2.80;;;11.70;96.50;;;;;;5058766;28;20196;-87
2021/10/07 00:27:43;;;;;;;5.37;2.90;;;11.70;96.60;;;;;;5058361;28;20202;-86
2021/10/07 00:30:16;;;;;;;5.33;2.60;;;11.80;96.20;;;;;;5054210;28;20191;-87
2021/10/07 00:36:00;;;;;;;4.43;2.80;;;11.70;96.50;;;;;;5021606;28;20211;-86
2021/10/07 00:41:10;;;;;;;3.87;2.90;;;11.60;96.70;;;;;;5056277;28;20318;-87
2021/10/07 00:43:36;;;;;;;4.30;2.80;;;11.50;97.20;;;;;;5055476;28;20194;-87
2021/10/07 00:46:01;;;;;;;4.83;3.00;;;11.50;97.50;;;;;;5029005;28;20190;-87
2021/10/07 00:48:27;;;;;;;2.87;2.67;;;11.50;97.60;;;;;;5044786;28;20214;-87
2021/10/07 00:50:53;;;;;;;4.60;2.90;;;11.50;97.20;;;;;;5052420;28;20247;-87
2021/10/07 00:53:20;;;;;;;7.37;3.33;;;11.40;97.80;;;;;;5047418;28;20215;-88
2021/10/07 00:55:47;;;;;;;4.10;3.10;;;11.50;97.20;;;;;;5049945;28;20178;-87
2021/10/07 00:58:14;;;;;;;4.20;2.93;;;11.40;97.60;;;;;;5055350;28;20224;-87
2021/10/07 01:00:41;;;;;;;4.97;3.27;;;11.40;96.90;;;;;;5029222;28;20227;-87
2021/10/07 01:03:08;;;;;;;4.40;2.57;;;11.40;97.60;;;;;;5041197;28;20567;-87
2021/10/07 01:05:34;;;;;;;4.87;3.00;;;11.30;98.10;;;;;;5048941;28;20252;-87
2021/10/07 01:08:00;;;;;;;3.07;2.77;;;11.40;97.60;;;;;;5048741;28;20195;-87
2021/10/07 01:10:25;;;;;;;5.93;3.20;;;11.30;98.80;;;;;;5048116;28;20256;-87
2021/10/07 01:12:51;;;;;;;3.67;2.90;;;11.30;98.50;;;;;;5048871;28;20243;-86
2021/10/07 01:15:18;;;;;;;7.20;3.13;;;11.30;98.40;;;;;;5028548;28;20209;-87
2021/10/07 01:17:44;;;;;;;6.97;3.10;;;11.40;97.90;;;;;;5047126;28;20220;-87
2021/10/07 01:20:12;;;;;;;6.10;3.00;;;11.40;97.30;;;;;;5049181;28;20222;-88
2021/10/07 01:22:37;;;;;;;5.60;2.83;;;11.40;97.90;;;;;;5044216;28;20214;-87
2021/10/07 01:25:04;;;;;;;4.07;2.70;;;11.50;97.50;;;;;;5048819;28;20196;-87
2021/10/07 01:27:32;;;;;;;4.10;2.73;;;11.60;97.20;;;;;;5041081;28;20199;-87
2021/10/07 01:30:17;;;;;;;2.80;2.20;;;11.80;96.60;;;;;;5030835;28;20189;-88
2021/10/07 01:32:43;;;;;;;3.67;2.50;;;11.90;95.80;;;;;;5013510;28;20747;-88
2021/10/07 01:35:10;;;;;;;3.60;2.70;;;12.00;95.20;;;;;;5048718;28;20271;-87
2021/10/07 01:37:36;;;;;;;2.83;2.50;;;12.00;95.00;;;;;;5048300;28;20192;-87
2021/10/07 01:40:08;;;;;;;3.40;2.63;;;12.10;94.60;;;;;;5045427;28;20216;-87
2021/10/07 01:42:34;;;;;;;3.47;2.50;;;12.20;93.90;;;;;;5042305;28;20208;-87
2021/10/07 01:44:59;;;;;;;3.57;2.50;;;12.20;92.90;;;;;;5045355;28;20192;-87
2021/10/07 01:47:25;;;;;;;3.87;2.80;;;12.20;92.80;;;;;;5046599;28;20211;-88
2021/10/07 01:49:51;;;;;;;3.23;2.47;;;12.30;92.60;;;;;;5029412;28;20259;-87
2021/10/07 01:52:16;;;;;;;4.63;2.57;;;12.20;92.60;;;;;;5045432;28;20231;-87
2021/10/07 01:54:42;;;;;;;5.30;2.50;;;12.30;92.90;;;;;;5047502;28;20215;-86
2021/10/07 01:57:07;;;;;;;4.53;3.13;;;12.40;92.20;;;;;;5045401;28;20248;-88
2021/10/07 01:59:33;;;;;;;3.30;2.57;;;12.40;91.80;;;;;;5048045;28;20192;-88
2021/10/07 02:01:59;;;;;;;4.30;2.73;;;12.40;91.80;;;;;;5046759;28;20267;-88
2021/10/07 02:04:24;;;;;;;5.53;2.93;;;12.30;92.30;;;;;;5046191;28;20562;-87
2021/10/07 02:06:50;;;;;;;3.13;2.60;;;12.20;93.40;;;;;;5028383;28;20612;-87
2021/10/07 02:09:16;;;;;;;4.03;2.80;;;12.20;92.60;;;;;;5048198;28;20201;-88
2021/10/07 02:11:41;;;;;;;5.47;2.63;;;12.20;92.50;;;;;;5044806;28;20216;-87
2021/10/07 02:14:07;;;;;;;2.40;2.20;;;12.20;92.90;;;;;;5045145;28;20206;-88
2021/10/07 02:16:33;;;;;;;4.30;2.60;;;12.10;93.20;;;;;;5046740;28;20287;-87
2021/10/07 02:18:58;;;;;;;3.10;2.73;;;12.20;93.10;;;;;;5047393;28;20403;-87
2021/10/07 02:21:24;;;;;;;5.10;2.60;;;12.20;93.20;;;;;;5042895;28;20231;-87
2021/10/07 02:23:50;;;;;;;4.17;3.13;;;12.20;93.20;;;;;;5046773;28;21388;-87
2021/10/07 02:26:16;;;;;;;3.33;2.80;;;12.10;93.50;;;;;;5047738;28;20308;-87
2021/10/07 02:28:42;;;;;;;3.30;3.00;;;12.10;93.80;;;;;;5042811;28;20566;-87
2021/10/07 02:31:08;;;;;;;3.90;2.90;;;12.10;93.80;;;;;;5046238;28;20224;-88
2021/10/07 02:33:33;;;;;;;4.47;3.30;;;12.00;94.90;;;;;;5051250;28;20211;-88
2021/10/07 02:35:59;;;;;;;4.13;3.30;;;11.90;95.20;;;;;;5050786;28;20215;-87
2021/10/07 02:38:25;;;;;;;3.70;3.13;;;11.80;95.80;;;;;;5054256;28;20282;-87
2021/10/07 02:40:51;;;;;;;5.17;3.40;;;11.70;96.70;;;;;;5049803;28;20267;-87
2021/10/07 02:43:16;;;;;;;5.83;3.53;;;11.70;96.60;;;;;;5046627;28;20195;-87
2021/10/07 02:45:42;;;;;;;4.83;3.40;;;11.80;96.60;;;;;;5065908;28;20190;-86
2021/10/07 02:48:08;;;;;;;8.27;4.27;;;11.80;96.40;;;;;;5071716;28;20220;-86
2021/10/07 02:50:34;;;;;;;5.00;3.80;;;11.70;97.60;;;;;;5049903;28;20216;-85
2021/10/07 02:53:00;;;;;;;5.20;4.00;;;11.70;97.60;;;;;;5043667;28;20208;-85
2021/10/07 02:55:26;;;;;;;5.30;3.80;;;11.70;97.70;;;;;;5033447;28;20241;-87
2021/10/07 02:57:51;;;;;;;7.00;4.27;;;11.70;98.90;;;;;;5048042;28;20257;-87
2021/10/07 03:00:18;;;;;;;4.70;4.30;;;11.80;97.30;;;;;;5041947;28;20520;-86
2021/10/07 03:02:44;;;;;;;5.20;4.50;;;11.80;97.50;;;;;;5062159;28;20219;-85
2021/10/07 03:05:11;;;;;;;6.27;4.60;;;11.80;97.10;;;;;;5066821;28;20187;-85
2021/10/07 03:07:36;;;;;;;5.37;4.30;;;11.70;98.00;;;;;;5056851;28;20282;-86
2021/10/07 03:10:04;;;;;;;5.57;4.60;;;11.60;98.70;;;;;;5045171;28;20640;-86
2021/10/07 03:12:29;;;;;;;6.63;5.20;;;11.60;99.20;;;;;;5047129;28;20417;-85
2021/10/07 03:14:55;;;;;;;8.87;5.60;;;11.50;99.60;;;;;;5030087;28;20279;-85
2021/10/07 03:17:21;;;;;;;8.33;5.03;;;11.50;99.90;;;;;;5049408;28;20199;-86
2021/10/07 03:19:46;;;;;;;6.77;4.90;;;11.40;99.90;;;;;;5034039;28;20188;-86
2021/10/07 03:22:13;;;;;;;5.73;4.53;;;11.40;99.90;;;;;;5035723;28;20211;-85
2021/10/07 03:24:39;;;;;;;9.87;4.73;;;11.40;99.90;;;;;;5049555;28;20225;-85
2021/10/07 03:27:05;;;;;;;7.00;4.67;;;11.40;99.90;;;;;;5055233;28;20196;-86
2021/10/07 03:29:31;;;;;;;4.53;3.77;;;11.30;99.90;;;;;;5051676;28;21353;-86
2021/10/07 03:31:57;;;;;;;6.83;4.87;;;11.40;99.90;;;;;;5031274;28;20215;-85
2021/10/07 03:34:23;;;;;;;7.00;4.50;;;11.30;99.90;;;;;;5059784;28;20210;-86
2021/10/07 03:36:48;;;;;;;5.33;4.27;;;11.30;99.90;;;;;;5036936;28;20206;-86
2021/10/07 03:39:14;;;;;;;7.30;4.43;;;11.30;99.90;;;;;;5049154;28;20562;-86
2021/10/07 03:41:40;;;;;;;5.17;4.07;;;11.40;99.90;;;;;;5044063;28;20227;-86
2021/10/07 03:44:06;;;;;;;6.80;4.03;;;11.50;99.90;;;;;;5047170;28;20191;-86
2021/10/07 03:46:32;;;;;;;3.80;3.50;;;11.50;99.40;;;;;;5030978;28;20194;-86
2021/10/07 03:49:02;;;;;;;5.00;3.63;;;11.70;98.90;;;;;;5053665;28;20191;-86
2021/10/07 03:51:28;;;;;;;5.10;3.60;;;11.80;98.00;;;;;;5037908;28;20309;-86
2021/10/07 03:53:53;;;;;;;4.70;3.50;;;12.00;97.30;;;;;;5055437;28;20245;-86
2021/10/07 03:56:19;;;;;;;4.37;3.97;;;12.00;96.80;;;;;;5056723;28;20218;-86
2021/10/07 03:58:45;;;;;;;5.37;3.77;;;12.00;97.00;;;;;;5057211;28;20206;-86
2021/10/07 04:01:11;;;;;;;5.93;3.47;;;11.90;97.60;;;;;;5055051;28;20257;-87
2021/10/07 04:03:37;;;;;;;4.57;3.10;;;11.90;97.20;;;;;;5056774;28;20199;-87
2021/10/07 04:06:02;;;;;;;8.03;3.63;;;11.90;97.00;;;;;;5054580;28;20241;-87
2021/10/07 04:08:28;;;;;;;4.90;4.20;;;11.70;97.90;;;;;;5054669;28;20199;-86
2021/10/07 04:10:54;;;;;;;5.13;3.50;;;11.70;98.60;;;;;;5056056;28;20211;-86
2021/10/07 04:13:21;;;;;;;5.70;3.67;;;11.70;98.50;;;;;;5034618;28;20299;-85
2021/10/07 04:15:47;;;;;;;4.83;3.60;;;11.70;98.60;;;;;;5037294;28;20315;-86
2021/10/07 04:18:15;;;;;;;3.90;3.50;;;11.70;99.20;;;;;;5055648;28;20317;-86
2021/10/07 04:20:42;;;;;;;6.23;3.77;;;11.70;99.10;;;;;;5054349;28;20679;-85
2021/10/07 04:23:09;;;;;;;3.80;3.50;;;11.80;98.10;;;;;;5037563;28;20198;-87
2021/10/07 04:25:35;;;;;;;3.93;3.37;;;11.80;98.00;;;;;;5055087;28;20207;-86
2021/10/07 04:28:03;;;;;;;4.57;3.63;;;11.90;97.80;;;;;;5053965;28;20595;-86
2021/10/07 04:30:28;;;;;;;5.30;3.70;;;12.00;97.00;;;;;;5043176;28;20199;-86
2021/10/07 04:32:54;;;;;;;3.77;3.17;;;12.00;97.30;;;;;;5052893;28;20198;-86
2021/10/07 04:35:20;;;;;;;6.53;5.30;;;12.10;97.30;;;;;;5046811;28;20200;-87
2021/10/07 04:37:45;;;;;;;9.57;6.30;;;12.20;96.60;;;;;;5048681;28;20657;-86
2021/10/07 04:40:12;;;;;;;46.40;41.53;;;12.10;95.70;;;;;;5052079;28;20225;-86
2021/10/07 04:42:37;;;;;;;21.60;19.50;;;12.10;95.90;;;;;;5050292;28;20214;-86
2021/10/07 04:45:03;;;;;;;68.67;61.73;;;12.10;96.00;;;;;;5049642;28;20189;-87
2021/10/07 04:47:29;;;;;;;7.60;6.40;;;12.20;96.00;;;;;;5066758;28;20640;-86
2021/10/07 04:49:57;;;;;;;4.93;4.40;;;12.20;95.80;;;;;;5043498;28;20207;-86
2021/10/07 04:52:23;;;;;;;7.00;5.30;;;12.20;95.70;;;;;;5059556;28;20226;-87
2021/10/07 04:54:49;;;;;;;4.40;4.00;;;12.20;95.90;;;;;;5058547;28;20188;-86
2021/10/07 04:57:15;;;;;;;7.00;4.57;;;12.20;95.80;;;;;;5063840;28;20223;-87
2021/10/07 04:59:40;;;;;;;7.63;4.07;;;12.00;96.60;;;;;;5057844;28;20192;-87
2021/10/07 05:02:06;;;;;;;5.43;4.10;;;11.90;97.40;;;;;;5058684;28;20277;-87
2021/10/07 05:04:32;;;;;;;5.43;4.57;;;11.90;97.20;;;;;;5039307;28;20216;-87
2021/10/07 05:06:58;;;;;;;5.43;4.87;;;12.00;97.70;;;;;;5039590;28;20197;-86
2021/10/07 05:09:24;;;;;;;5.87;3.73;;;11.90;97.50;;;;;;5059916;28;20211;-86
2021/10/07 05:11:49;;;;;;;4.73;3.80;;;11.90;97.30;;;;;;5063944;28;20279;-86
2021/10/07 05:14:15;;;;;;;4.63;3.97;;;12.00;97.50;;;;;;5068577;28;20219;-86
2021/10/07 05:16:41;;;;;;;6.60;3.97;;;11.90;97.00;;;;;;5069807;28;20201;-86
2021/10/07 05:19:06;;;;;;;5.37;4.87;;;11.90;98.00;;;;;;5071522;28;20201;-87
2021/10/07 05:21:32;;;;;;;5.77;4.03;;;11.80;98.50;;;;;;5059428;28;20729;-87
2021/10/07 05:23:58;;;;;;;5.37;4.90;;;11.80;98.90;;;;;;5056949;28;20270;-86
2021/10/07 05:26:24;;;;;;;5.57;4.97;;;11.70;99.00;;;;;;5055939;28;20237;-86
2021/10/07 05:28:49;;;;;;;6.07;4.60;;;11.80;99.50;;;;;;5041957;28;20195;-87
2021/10/07 05:31:15;;;;;;;5.17;4.60;;;11.90;98.60;;;;;;5058944;28;20290;-86
2021/10/07 05:33:41;;;;;;;7.00;4.50;;;11.90;98.80;;;;;;5056898;28;20223;-86
2021/10/07 05:36:06;;;;;;;6.73;4.60;;;12.10;98.70;;;;;;5059383;28;20211;-86
2021/10/07 05:38:32;;;;;;;5.07;4.33;;;12.10;97.50;;;;;;5058626;28;20199;-86
2021/10/07 05:41:00;;;;;;;4.57;4.17;;;12.10;98.20;;;;;;5059309;28;20696;-86
2021/10/07 05:43:26;;;;;;;5.07;4.00;;;12.10;98.50;;;;;;5041992;28;20254;-86
2021/10/07 05:45:52;;;;;;;4.70;4.03;;;12.20;97.80;;;;;;5059987;28;20191;-86
2021/10/07 05:48:18;;;;;;;4.87;4.27;;;12.20;97.30;;;;;;5056727;28;20646;-86
2021/10/07 05:50:44;;;;;;;4.47;4.07;;;12.30;97.30;;;;;;5058128;28;20208;-86
2021/10/07 05:53:10;;;;;;;4.53;4.00;;;12.40;96.30;;;;;;5059335;28;20200;-85
2021/10/07 05:55:36;;;;;;;5.90;4.10;;;12.40;96.10;;;;;;5039678;28;20196;-86
2021/10/07 05:58:02;;;;;;;4.80;4.03;;;12.30;96.20;;;;;;5055622;28;20273;-86
2021/10/07 06:00:28;;;;;;;5.13;4.10;;;12.40;96.20;;;;;;5058805;28;20744;-86
2021/10/07 06:02:53;;;;;;;4.10;3.80;;;12.30;95.60;;;;;;5061029;28;20212;-87
2021/10/07 06:05:19;;;;;;;6.70;4.30;;;12.30;96.10;;;;;;5057029;28;20543;-86
2021/10/07 06:07:45;;;;;;;8.07;4.27;;;12.10;97.40;;;;;;5056647;28;20257;-87
2021/10/07 06:10:14;;;;;;;7.80;3.97;;;12.10;98.00;;;;;;5066611;28;20191;-86
2021/10/07 06:12:41;;;;;;;4.23;3.93;;;12.10;98.20;;;;;;5055187;28;20220;-87
2021/10/07 06:15:07;;;;;;;3.93;3.63;;;12.10;97.50;;;;;;5053854;28;20189;-87
2021/10/07 06:17:34;;;;;;;4.60;4.17;;;12.10;97.90;;;;;;5059432;28;20196;-85
2021/10/07 06:20:06;;;;;;;4.53;4.13;;;12.10;98.00;;;;;;5033835;28;20204;-86
2021/10/07 06:22:32;;;;;;;19.13;16.90;;;12.20;97.30;;;;;;5060323;28;20224;-85
2021/10/07 06:24:58;;;;;;;14.00;12.60;;;12.30;96.80;;;;;;5048646;28;20220;-84
2021/10/07 06:27:24;;;;;;;9.33;8.43;;;12.30;96.90;;;;;;5069375;28;20190;-86
2021/10/07 06:29:53;;;;;;;6.30;5.60;;;12.30;97.20;;;;;;5065610;28;20667;-87
2021/10/07 06:32:18;;;;;;;4.37;3.93;;;12.30;96.50;;;;;;5073254;28;20221;-88
2021/10/07 06:34:44;;;;;;;4.87;4.37;;;12.20;97.40;;;;;;5068938;28;20908;-87
2021/10/07 06:37:10;;;;;;;6.47;4.50;;;12.20;97.10;;;;;;5066523;28;20216;-88
2021/10/07 06:39:36;;;;;;;4.37;3.97;;;12.20;97.80;;;;;;5065250;28;20196;-87
2021/10/07 06:42:02;;;;;;;5.17;3.80;;;12.20;97.90;;;;;;5062211;28;20236;-87
2021/10/07 06:44:27;;;;;;;4.30;3.90;;;12.40;96.50;;;;;;5053322;28;20234;-85
2021/10/07 06:46:53;;;;;;;6.93;5.80;;;12.40;96.40;;;;;;5062650;28;20604;-87
2021/10/07 06:49:19;;;;;;;4.60;4.00;;;12.50;96.20;;;;;;5058569;28;20196;-86
2021/10/07 06:51:44;;;;;;;5.60;4.53;;;12.40;96.30;;;;;;5070822;28;20245;-85
2021/10/07 06:54:10;;;;;;;5.70;4.30;;;12.30;97.10;;;;;;5065289;28;20784;-86
2021/10/07 06:56:36;;;;;;;6.53;4.23;;;12.30;97.20;;;;;;5039546;28;20212;-87
2021/10/07 06:59:02;;;;;;;6.57;4.60;;;12.40;97.10;;;;;;5053864;28;20193;-87
2021/10/07 07:01:29;;;;;;;6.00;4.27;;;12.50;96.70;;;;;;5066959;28;20273;-88
2021/10/07 07:03:56;;;;;;;5.33;4.20;;;12.60;95.90;;;;;;5043462;28;20202;-88
2021/10/07 07:06:24;;;;;;;4.87;4.40;;;12.70;95.20;;;;;;5080934;28;20193;-88
2021/10/07 07:08:50;;;;;;;5.30;4.20;;;12.60;95.70;;;;;;5082203;28;20201;-88
2021/10/07 07:11:16;;;;;;;5.03;4.50;;;12.60;96.00;;;;;;5065659;28;20206;-88
2021/10/07 07:13:43;;;;;;;7.17;5.87;;;12.50;97.30;;;;;;5072855;28;20252;-88
2021/10/07 07:16:10;;;;;;;5.30;4.67;;;12.50;97.30;;;;;;5075782;28;20203;-88
2021/10/07 07:18:35;;;;;;;8.37;4.63;;;12.60;96.90;;;;;;5069762;28;20236;-88
2021/10/07 07:21:01;;;;;;;5.27;4.77;;;12.70;96.30;;;;;;5056783;28;20224;-88
2021/10/07 07:23:27;;;;;;;5.80;5.20;;;12.60;97.10;;;;;;5051107;28;20190;-88
2021/10/07 07:25:53;;;;;;;6.50;4.70;;;12.50;97.70;;;;;;5051570;28;20210;-88
2021/10/07 07:28:19;;;;;;;5.00;4.47;;;12.60;97.00;;;;;;5056374;28;20183;-87
2021/10/07 07:30:44;;;;;;;5.60;4.50;;;12.80;96.00;;;;;;5050950;28;20210;-88
2021/10/07 07:33:10;;;;;;;7.00;5.13;;;12.90;95.50;;;;;;5046180;28;20725;-87
2021/10/07 07:35:36;;;;;;;9.53;5.50;;;12.70;96.40;;;;;;5047835;28;20188;-88
2021/10/07 07:38:04;;;;;;;7.53;5.00;;;12.60;97.30;;;;;;5030165;28;20333;-88
2021/10/07 07:40:31;;;;;;;5.30;4.80;;;12.80;96.30;;;;;;5047154;28;20212;-88
2021/10/07 07:42:57;;;;;;;5.97;5.37;;;12.70;96.10;;;;;;5050348;28;20195;-88
2021/10/07 07:45:24;;;;;;;5.10;4.60;;;12.80;95.60;;;;;;5052953;28;20196;-88
2021/10/07 07:47:50;;;;;;;6.80;5.30;;;12.90;95.40;;;;;;5043370;28;20189;-88
2021/10/07 07:50:18;;;;;;;6.90;5.00;;;12.90;94.70;;;;;;5033992;28;20197;-88
2021/10/07 07:52:45;;;;;;;6.07;4.80;;;12.90;95.30;;;;;;5060065;28;20220;-87
2021/10/07 07:55:12;;;;;;;4.80;4.30;;;12.90;95.10;;;;;;5036096;28;20189;-88
2021/10/07 07:57:38;;;;;;;6.20;5.37;;;13.00;94.70;;;;;;5045588;28;20212;-88
2021/10/07 08:00:08;;;;;;;5.87;4.80;;;13.10;94.30;;;;;;5067565;28;20204;-88
2021/10/07 08:02:33;;;;;;;6.57;4.97;;;13.10;95.10;;;;;;5055191;28;20228;-88
2021/10/07 08:04:59;;;;;;;5.93;5.00;;;13.10;94.10;;;;;;5061392;28;20196;-87
2021/10/07 08:07:27;;;;;;;6.07;5.47;;;13.00;94.40;;;;;;5069522;28;20207;-88
2021/10/07 08:09:56;;;;;;;5.00;4.50;;;13.00;95.50;;;;;;5066384;28;20180;-88
2021/10/07 08:12:21;;;;;;;6.20;5.00;;;13.10;94.40;;;;;;5066717;28;20232;-88
2021/10/07 08:14:48;;;;;;;10.90;5.17;;;13.00;94.50;;;;;;5056607;28;20690;-88
2021/10/07 08:17:15;;;;;;;5.70;4.70;;;13.10;95.00;;;;;;5042224;28;20186;-88
2021/10/07 08:19:42;;;;;;;7.20;5.40;;;13.10;94.40;;;;;;5058799;28;20205;-86
2021/10/07 08:22:09;;;;;;;5.73;5.23;;;13.20;93.80;;;;;;5058124;28;20718;-87
2021/10/07 08:24:35;;;;;;;6.53;5.10;;;13.20;94.20;;;;;;5040059;28;20281;-88
2021/10/07 08:27:03;;;;;;;6.57;5.07;;;13.30;94.70;;;;;;5066698;28;20216;-88
2021/10/07 08:29:29;;;;;;;7.33;5.57;;;13.20;93.90;;;;;;5062564;28;20201;-88
2021/10/07 08:31:55;;;;;;;6.07;5.53;;;13.30;93.80;;;;;;5063457;28;20688;-87
2021/10/07 08:34:21;;;;;;;6.27;5.67;;;13.30;93.70;;;;;;5058300;28;20184;-88
2021/10/07 08:36:47;;;;;;;7.03;5.10;;;13.30;93.90;;;;;;5056068;28;20203;-88
2021/10/07 08:39:15;;;;;;;7.40;5.50;;;13.40;93.60;;;;;;5061824;28;20196;-88
2021/10/07 08:41:45;;;;;;;6.37;5.77;;;13.40;93.60;;;;;;5071803;28;20223;-87
2021/10/07 08:44:12;;;;;;;6.17;5.67;;;13.20;93.90;;;;;;5076143;28;20189;-88
2021/10/07 08:46:40;;;;;;;7.23;5.10;;;13.30;94.00;;;;;;5059247;28;20196;-88
2021/10/07 08:49:07;;;;;;;6.13;5.33;;;13.30;93.80;;;;;;5065864;28;20663;-88
2021/10/07 08:51:33;;;;;;;7.27;5.50;;;13.30;94.40;;;;;;5042807;28;20222;-87
2021/10/07 08:53:59;;;;;;;5.43;4.93;;;13.50;92.80;;;;;;5059292;28;20203;-87
2021/10/07 08:56:26;;;;;;;5.40;4.90;;;13.50;92.30;;;;;;5066103;28;20705;-87
2021/10/07 08:58:52;;;;;;;6.20;5.60;;;13.60;92.10;;;;;;5059547;28;20665;-87
2021/10/07 09:01:40;;;;;;;6.27;5.67;;;13.70;92.50;;;;;;5068496;28;20272;-87
2021/10/07 09:04:30;;;;;;;5.33;4.83;;;13.70;92.90;;;;;;5049154;28;20255;-87
2021/10/07 09:07:08;;;;;;;6.03;5.33;;;13.70;92.90;;;;;;5049513;28;20274;-87
2021/10/07 09:09:43;;;;;;;5.40;4.90;;;13.70;93.20;;;;;;5057271;28;20287;-88
2021/10/07 09:12:14;;;;;;;7.03;5.40;;;13.70;92.90;;;;;;5051281;28;20208;-88
2021/10/07 09:14:47;;;;;;;5.83;5.13;;;13.80;93.00;;;;;;5041266;28;20295;-88
2021/10/07 09:17:17;;;;;;;5.43;5.03;;;14.00;91.60;;;;;;5053152;28;20230;-87
2021/10/07 09:19:46;;;;;;;5.40;4.80;;;13.90;92.00;;;;;;5051883;28;20204;-87
2021/10/07 09:22:23;;;;;;;6.03;5.47;;;13.90;91.00;;;;;;5033662;28;20227;-88
2021/10/07 09:25:00;;;;;;;6.73;6.03;;;14.00;90.20;;;;;;5044527;28;20195;-87
2021/10/07 09:27:28;;;;;;;7.00;6.30;;;14.10;90.90;;;;;;5046484;28;20652;-87
2021/10/07 09:30:01;;;;;;;6.60;5.97;;;14.20;89.60;;;;;;5063066;28;20227;-89
2021/10/07 09:32:36;;;;;;;6.10;5.60;;;14.30;88.30;;;;;;5054033;28;20856;-89
2021/10/07 09:35:08;;;;;;;5.47;4.97;;;14.50;87.90;;;;;;5050828;28;20196;-88
2021/10/07 09:37:36;;;;;;;5.27;4.80;;;14.50;86.30;;;;;;5054712;28;20181;-88
2021/10/07 09:40:11;;;;;;;5.90;5.40;;;14.60;87.50;;;;;;5052118;28;20196;-89
2021/10/07 09:42:44;;;;;;;5.63;5.13;;;14.60;87.90;;;;;;5028589;28;20579;-89
2021/10/07 09:45:24;;;;;;;6.07;5.57;;;14.70;87.30;;;;;;5053863;28;20286;-88
2021/10/07 09:48:04;;;;;;;7.30;6.03;;;14.50;86.20;;;;;;5052467;28;20192;-88
2021/10/07 09:50:32;;;;;;;6.30;5.57;;;14.60;85.00;;;;;;5033644;28;20210;-88
2021/10/07 09:53:03;;;;;;;6.33;5.73;;;14.60;87.50;;;;;;5046644;28;20233;-89
2021/10/07 09:55:34;;;;;;;6.63;6.03;;;14.50;87.90;;;;;;5048954;28;20196;-88
2021/10/07 09:58:00;;;;;;;6.20;5.60;;;14.50;85.30;;;;;;5035659;28;20337;-88
2021/10/07 10:00:34;;;;;;;5.97;5.47;;;14.60;86.00;;;;;;5063980;28;20202;-88
2021/10/07 10:03:01;;;;;;;5.50;5.00;;;14.70;85.60;;;;;;5052615;28;20190;-87
2021/10/07 10:05:29;;;;;;;6.13;5.63;;;14.70;84.20;;;;;;5063294;28;20199;-88
2021/10/07 10:07:55;;;;;;;6.30;5.63;;;14.70;84.70;;;;;;5069186;28;20179;-88
2021/10/07 10:10:21;;;;;;;5.90;5.30;;;14.70;85.70;;;;;;5042992;28;20230;-88
2021/10/07 10:12:47;;;;;;;5.87;5.37;;;14.80;84.30;;;;;;5052867;28;20760;-88
2021/10/07 10:15:14;;;;;;;5.67;5.17;;;14.70;84.30;;;;;;5065011;28;20211;-88
2021/10/07 10:17:40;;;;;;;5.77;5.37;;;14.80;83.90;;;;;;5047478;28;20674;-88
2021/10/07 10:20:21;;;;;;;5.90;5.10;;;14.60;84.60;;;;;;5033525;28;20196;-89
2021/10/07 10:22:57;;;;;;;6.37;5.10;;;14.80;83.40;;;;;;5062222;28;20245;-86
2021/10/07 10:25:24;;;;;;;6.17;5.60;;;14.90;84.00;;;;;;5065779;28;20170;-88
2021/10/07 10:27:55;;;;;;;6.23;5.47;;;14.80;84.20;;;;;;5054607;28;20283;-87
2021/10/07 10:30:31;;;;;;;5.63;5.13;;;14.90;84.30;;;;;;5056859;28;20184;-87
2021/10/07 10:33:00;;;;;;;7.33;5.47;;;15.00;81.10;;;;;;5052384;28;20270;-85
2021/10/07 10:35:40;;;;;;;6.50;4.40;;;14.90;81.40;;;;;;5050311;28;20655;-85
2021/10/07 10:38:11;;;;;;;4.53;4.23;;;15.00;82.10;;;;;;5046725;28;20185;-86
2021/10/07 10:40:38;;;;;;;5.43;4.90;;;14.90;81.70;;;;;;5048700;28;20207;-86
2021/10/07 10:43:19;;;;;;;5.47;4.97;;;14.90;84.00;;;;;;5032338;28;20257;-85
2021/10/07 10:45:51;;;;;;;5.93;5.00;;;14.90;84.70;;;;;;5049224;28;20192;-86
2021/10/07 10:48:41;;;;;;;5.20;4.70;;;15.00;81.90;;;;;;5048041;28;20187;-88
2021/10/07 10:51:18;;;;;;;4.60;4.07;;;14.90;81.80;;;;;;5039327;28;20208;-88
2021/10/07 10:54:05;;;;;;;5.10;4.57;;;14.90;83.00;;;;;;5054615;28;20189;-87
2021/10/07 10:56:53;;;;;;;5.50;4.60;;;15.00;82.70;;;;;;5059043;28;20184;-89
2021/10/07 10:59:21;;;;;;;5.67;4.87;;;15.20;80.30;;;;;;5053041;28;20267;-89
2021/10/07 11:02:14;;;;;;;5.00;4.50;;;15.20;81.40;;;;;;5047701;28;20663;-89
2021/10/07 11:04:47;;;;;;;7.57;5.47;;;15.40;80.40;;;;;;5062970;28;20665;-89
2021/10/07 11:07:36;;;;;;;6.00;5.50;;;15.30;80.30;;;;;;5033103;28;20187;-88
2021/10/07 11:10:11;;;;;;;10.03;5.47;;;15.40;80.10;;;;;;5025070;28;20187;-88
2021/10/07 11:12:51;;;;;;;7.17;5.30;;;15.50;80.10;;;;;;5054556;28;20276;-89
2021/10/07 11:15:19;;;;;;;5.70;5.20;;;15.70;78.20;;;;;;5068266;28;20196;-88
2021/10/07 11:17:46;;;;;;;5.27;4.50;;;15.80;78.20;;;;;;5059405;28;20195;-87
2021/10/07 11:20:31;;;;;;;5.47;5.00;;;16.00;76.80;;;;;;5066213;28;20200;-85
2021/10/07 11:23:18;;;;;;;4.80;4.40;;;16.20;73.80;;;;;;5070082;28;20241;-88
2021/10/07 11:25:50;;;;;;;4.20;3.90;;;16.00;74.80;;;;;;5065014;28;20197;-88
2021/10/07 11:28:23;;;;;;;5.43;4.63;;;16.10;76.10;;;;;;5045286;28;20188;-88
2021/10/07 11:30:49;;;;;;;4.63;4.23;;;16.00;75.70;;;;;;5049889;28;20746;-87
2021/10/07 11:33:15;;;;;;;4.83;4.40;;;16.00;76.10;;;;;;5050047;28;20196;-89
2021/10/07 11:35:41;;;;;;;4.50;4.10;;;16.10;74.80;;;;;;5048797;28;20195;-89
2021/10/07 11:38:12;;;;;;;4.90;4.40;;;16.10;75.10;;;;;;5051397;28;20870;-86
2021/10/07 11:40:49;;;;;;;4.80;4.40;;;16.10;75.00;;;;;;5049186;28;20310;-89
2021/10/07 11:43:21;;;;;;;20.03;15.33;;;16.20;75.80;;;;;;5019678;28;20199;-89
2021/10/07 11:45:52;;;;;;;4.80;4.50;;;16.50;75.80;;;;;;5028269;28;20191;-86
2021/10/07 11:48:19;;;;;;;6.33;4.60;;;16.90;71.90;;;;;;5057178;28;20257;-86
2021/10/07 11:50:48;;;;;;;4.37;3.97;;;17.20;68.50;;;;;;5047669;28;20642;-87
2021/10/07 11:53:26;;;;;;;4.30;3.90;;;17.20;70.40;;;;;;5062281;28;20211;-86
2021/10/07 11:55:51;;;;;;;4.23;3.93;;;17.60;69.60;;;;;;5068713;28;20192;-86
2021/10/07 11:58:17;;;;;;;4.53;4.13;;;17.90;65.50;;;;;;5047336;28;20275;-87
2021/10/07 12:00:51;;;;;;;3.83;3.53;;;18.00;66.00;;;;;;5057201;28;20228;-88
2021/10/07 12:03:20;;;;;;;4.30;3.90;;;17.90;66.70;;;;;;5039127;28;20383;-88
2021/10/07 12:05:53;;;;;;;4.43;4.03;;;17.70;67.00;;;;;;5055610;28;20193;-89
2021/10/07 12:08:20;;;;;;;4.83;4.00;;;18.00;67.00;;;;;;5055318;28;20197;-89
2021/10/07 12:10:47;;;;;;;4.90;4.50;;;17.90;65.50;;;;;;5056055;28;20284;-88
2021/10/07 12:13:17;;;;;;;4.57;4.17;;;17.60;66.80;;;;;;5072980;28;20183;-88
2021/10/07 12:15:46;;;;;;;4.03;3.73;;;17.50;67.00;;;;;;5069930;28;20271;-88
2021/10/07 12:18:12;;;;;;;5.17;4.10;;;16.90;66.60;;;;;;5055936;28;20279;-88
2021/10/07 12:20:38;;;;;;;4.63;4.23;;;16.90;69.80;;;;;;5063126;28;20581;-88
2021/10/07 12:23:06;;;;;;;4.33;3.93;;;17.40;67.00;;;;;;5058663;28;20532;-88
2021/10/07 12:25:40;;;;;;;4.03;3.60;;;17.80;64.70;;;;;;5062216;28;20191;-88
2021/10/07 12:28:06;;;;;;;4.45;3.50;;;18.10;64.70;;;;;;5062670;28;20219;-88
2021/10/07 12:30:32;;;;;;;3.60;3.17;;;18.60;62.10;;;;;;5059233;28;20253;-88
2021/10/07 12:33:10;;;;;;;3.45;3.15;;;19.00;61.20;;;;;;5043907;28;20671;-90
2021/10/07 12:35:35;;;;;;;4.18;3.75;;;19.50;59.00;;;;;;5060245;28;20192;-88
2021/10/07 12:38:01;;;;;;;3.75;3.42;;;19.60;59.10;;;;;;5068520;28;20196;-89
2021/10/07 12:40:27;;;;;;;3.65;3.35;;;19.80;59.60;;;;;;5066280;28;20222;-88
2021/10/07 12:42:53;;;;;;;4.45;3.50;;;19.90;59.20;;;;;;5051799;28;20239;-89
2021/10/07 12:45:19;;;;;;;3.63;3.33;;;19.60;59.70;;;;;;5059906;28;20664;-89
2021/10/07 12:47:45;;;;;;;4.25;3.60;;;19.30;61.10;;;;;;5058033;28;20246;-90
2021/10/07 12:50:15;;;;;;;3.65;3.10;;;19.30;59.50;;;;;;5052301;28;20193;-90
2021/10/07 12:52:54;;;;;;;3.97;3.67;;;19.70;59.30;;;;;;5057408;28;20230;-90
2021/10/07 12:55:20;;;;;;;3.42;3.10;;;20.20;55.80;;;;;;5066321;28;20275;-91